首页
METAR-TAF:

METAR-TAF

机场 :

馬尼薩萊斯, 哥伦比亚

纬度: 05-01-48N, 经度: 075-27-50W, 海拔: 2063米

当前天气观测

该预报发布于15小时和38分钟前的22:00 UTC
风速6节,风向西,在南转西南北转西北之间变化
温度 24°C
湿度 61%
气压 1023 hPa
能見度: 9000

METAR: SKMZ 132200Z 27006KT 200V330 9000 NSC 24/16 Q1023

时间: 08:38 (13:38 UTC)


TAF: 丢失

超过4000个机场的气象观测和天气预报(METAR&TAF报告)。

可查询的气象台以黄色和红色小点在地图上表示。

将鼠标移到小点上方,可查看气象台名称。

然后点击查看天气观测和预报。

如需切换地图:点击带黑十字的绿色按钮放大地图;点击带横线的绿色按钮缩小地图;或者点击绿色箭头查看邻近地区的地图。


METAR-TAF: